createdAt,value
2024-01-29T00:01:45.744Z,25.92
2024-01-29T00:04:13.774Z,27.42
2024-01-29T00:06:41.616Z,30.13
2024-01-29T00:09:09.497Z,27.52
2024-01-29T00:11:38.727Z,26.48
2024-01-29T00:14:07.399Z,29.73
2024-01-29T00:16:35.169Z,30.38
2024-01-29T00:19:03.102Z,26.27
2024-01-29T00:21:32.079Z,22.95
2024-01-29T00:24:01.998Z,26.70
2024-01-29T00:26:30.414Z,27.27
2024-01-29T00:28:59.770Z,21.77
2024-01-29T00:31:29.588Z,28.02
2024-01-29T00:33:57.547Z,28.15
2024-01-29T00:36:25.501Z,28.27
2024-01-29T00:38:53.385Z,28.80
2024-01-29T00:41:21.206Z,26.55
2024-01-29T00:43:48.994Z,28.33
2024-01-29T00:46:18.216Z,26.15
2024-01-29T00:48:46.269Z,31.65
2024-01-29T00:51:14.195Z,27.30
2024-01-29T00:53:42.026Z,31.15
2024-01-29T00:56:09.876Z,31.38
2024-01-29T00:58:37.718Z,32.78
2024-01-29T01:01:06.393Z,27.95
2024-01-29T01:03:35.647Z,29.75
2024-01-29T01:06:03.544Z,33.47
2024-01-29T01:08:31.465Z,33.22
2024-01-29T01:10:59.290Z,27.98
2024-01-29T01:13:27.178Z,32.65
2024-01-29T01:15:55.026Z,34.13
2024-01-29T01:18:23.071Z,36.22
2024-01-29T01:20:52.286Z,28.15
2024-01-29T01:23:20.138Z,31.73
2024-01-29T01:25:48.066Z,27.90
2024-01-29T01:28:15.881Z,23.83
2024-01-29T01:30:43.796Z,34.35
2024-01-29T01:33:11.878Z,26.75
2024-01-29T01:35:39.791Z,37.83
2024-01-29T01:38:08.980Z,25.70
2024-01-29T01:40:36.844Z,26.67
2024-01-29T01:43:16.663Z,24.15
2024-01-29T01:45:44.493Z,25.23
2024-01-29T01:48:12.929Z,34.00
2024-01-29T01:50:41.120Z,25.40
2024-01-29T01:53:10.282Z,31.30
2024-01-29T01:55:38.254Z,28.73
2024-01-29T01:58:08.323Z,29.20
2024-01-29T02:00:36.500Z,30.63
2024-01-29T02:03:04.998Z,27.55
2024-01-29T02:05:32.963Z,28.73
2024-01-29T02:08:00.864Z,27.80
2024-01-29T02:10:30.155Z,26.25
2024-01-29T02:12:58.200Z,29.50
2024-01-29T02:15:26.113Z,31.83
2024-01-29T02:17:54.048Z,29.33
2024-01-29T02:20:22.716Z,26.10
2024-01-29T02:22:51.852Z,27.80
2024-01-29T02:25:19.666Z,28.40
2024-01-29T02:27:47.501Z,27.20
2024-01-29T02:30:15.753Z,25.95
2024-01-29T02:32:43.872Z,26.92
2024-01-29T02:35:11.785Z,27.35
2024-01-29T02:37:39.670Z,27.95
2024-01-29T02:40:10.316Z,24.08
2024-01-29T02:42:38.244Z,23.80
2024-01-29T02:45:06.874Z,24.63
2024-01-29T02:47:34.716Z,27.30
2024-01-29T02:50:02.846Z,25.40
2024-01-29T02:52:30.785Z,26.35
2024-01-29T02:54:58.705Z,30.77
2024-01-29T02:57:28.103Z,34.05
2024-01-29T02:59:55.959Z,31.90
2024-01-29T03:02:23.992Z,27.73
2024-01-29T03:04:52.723Z,25.73
2024-01-29T03:07:20.566Z,25.48
2024-01-29T03:09:48.989Z,24.80
2024-01-29T03:12:16.983Z,21.98
2024-01-29T03:14:46.131Z,25.20
2024-01-29T03:17:14.099Z,25.75
2024-01-29T03:19:42.103Z,25.95
2024-01-29T03:22:10.003Z,26.92
2024-01-29T03:24:37.911Z,26.42
2024-01-29T03:27:06.088Z,24.40
2024-01-29T03:29:33.953Z,24.70
2024-01-29T03:32:03.419Z,29.50
2024-01-29T03:34:31.373Z,20.90
2024-01-29T03:36:58.368Z,24.08
2024-01-29T03:39:26.239Z,26.02
2024-01-29T03:41:54.043Z,29.85
2024-01-29T03:44:21.762Z,24.92
2024-01-29T03:46:49.499Z,26.17
2024-01-29T03:49:18.774Z,30.65
2024-01-29T03:51:46.753Z,28.58
2024-01-29T03:54:14.666Z,26.77
2024-01-29T03:56:42.490Z,24.15
2024-01-29T03:59:12.164Z,23.50
2024-01-29T04:01:40.503Z,29.05
2024-01-29T04:04:11.936Z,29.13
2024-01-29T04:06:42.356Z,23.25
2024-01-29T04:09:11.201Z,24.90
2024-01-29T04:11:39.357Z,30.27
2024-01-29T04:14:07.203Z,28.17
2024-01-29T04:16:35.376Z,27.08
2024-01-29T04:19:03.243Z,28.10
2024-01-29T04:21:31.172Z,33.47
2024-01-29T04:24:00.396Z,26.33
2024-01-29T04:26:28.379Z,23.98
2024-01-29T04:28:56.155Z,24.42
2024-01-29T04:31:23.989Z,27.52
2024-01-29T04:33:51.864Z,22.30
2024-01-29T04:36:19.719Z,28.20
2024-01-29T04:38:47.518Z,25.48
2024-01-29T04:41:23.835Z,23.98
2024-01-29T04:43:51.908Z,19.20
2024-01-29T04:46:19.810Z,21.88
2024-01-29T04:48:47.714Z,21.60
2024-01-29T04:51:16.773Z,18.70
2024-01-29T04:53:44.549Z,20.95
2024-01-29T04:56:12.368Z,21.65
2024-01-29T04:58:41.590Z,17.30
2024-01-29T05:01:09.715Z,19.17
2024-01-29T05:03:37.968Z,17.65
2024-01-29T05:06:07.232Z,17.95
2024-01-29T05:08:35.059Z,15.15
2024-01-29T05:11:02.893Z,16.20
2024-01-29T05:13:30.689Z,16.48
2024-01-29T05:16:00.100Z,14.02
2024-01-29T05:18:28.039Z,16.35
2024-01-29T05:20:56.543Z,13.70
2024-01-29T05:23:24.954Z,14.10
2024-01-29T05:25:52.709Z,13.77
2024-01-29T05:28:20.559Z,13.32
2024-01-29T05:30:48.340Z,12.43
2024-01-29T05:33:25.448Z,13.48
2024-01-29T05:35:54.816Z,15.75
2024-01-29T05:38:22.665Z,11.32
2024-01-29T05:40:50.428Z,12.05
2024-01-29T05:43:18.233Z,11.30
2024-01-29T05:45:47.574Z,12.63
2024-01-29T05:48:17.020Z,12.35
2024-01-29T05:50:44.891Z,11.73
2024-01-29T05:53:12.784Z,13.35
2024-01-29T05:55:40.688Z,13.70
2024-01-29T05:58:08.685Z,12.27
2024-01-29T06:00:36.645Z,11.15
2024-01-29T06:03:04.865Z,14.90
2024-01-29T06:05:34.178Z,11.82
2024-01-29T06:08:02.264Z,15.00
2024-01-29T06:10:30.083Z,10.70
2024-01-29T06:12:57.904Z,10.52
2024-01-29T06:15:25.734Z,13.38
2024-01-29T06:17:53.788Z,12.10
2024-01-29T06:20:21.729Z,11.35
2024-01-29T06:22:50.954Z,11.15
2024-01-29T06:25:21.232Z,12.80
2024-01-29T06:27:50.012Z,9.48
2024-01-29T06:30:17.965Z,8.98
2024-01-29T06:32:45.831Z,10.40
2024-01-29T06:35:13.695Z,8.13
2024-01-29T06:37:41.711Z,12.13
2024-01-29T06:40:11.478Z,12.98
2024-01-29T06:42:39.481Z,13.63
2024-01-29T06:45:09.295Z,11.50
2024-01-29T06:47:37.551Z,10.57
2024-01-29T06:50:06.438Z,11.75
2024-01-29T06:52:34.215Z,14.90
2024-01-29T06:55:02.251Z,13.15
2024-01-29T06:57:31.474Z,11.48
2024-01-29T06:59:59.362Z,12.90
2024-01-29T07:02:27.133Z,13.13
2024-01-29T07:04:55.457Z,14.88
2024-01-29T07:07:23.259Z,10.50
2024-01-29T07:09:53.100Z,11.73
2024-01-29T07:12:20.936Z,11.80
2024-01-29T07:14:50.917Z,15.93
2024-01-29T07:17:18.799Z,19.52
2024-01-29T07:19:49.534Z,12.88
2024-01-29T07:22:20.089Z,9.68
2024-01-29T07:24:49.889Z,9.40
2024-01-29T07:27:17.880Z,11.00
2024-01-29T07:29:45.840Z,8.43
2024-01-29T07:32:15.105Z,10.52
2024-01-29T07:34:43.149Z,12.98
2024-01-29T07:37:11.009Z,13.88
2024-01-29T07:39:39.387Z,15.00
2024-01-29T07:42:07.372Z,15.70
2024-01-29T07:44:35.132Z,15.13
2024-01-29T07:47:02.970Z,15.13
2024-01-29T07:49:33.196Z,15.90
2024-01-29T07:52:01.210Z,17.98
2024-01-29T07:54:28.980Z,17.55
2024-01-29T07:56:56.835Z,15.57
2024-01-29T07:59:24.607Z,14.85
2024-01-29T08:01:52.452Z,15.25
2024-01-29T08:04:20.366Z,16.63
2024-01-29T08:06:49.747Z,20.75
2024-01-29T08:09:18.224Z,16.98
2024-01-29T08:11:45.996Z,20.50
2024-01-29T08:14:13.865Z,14.38
2024-01-29T08:16:41.640Z,9.95
2024-01-29T08:19:09.664Z,13.52
2024-01-29T08:21:38.334Z,9.07
2024-01-29T08:24:08.411Z,9.93
2024-01-29T08:26:36.422Z,11.07
2024-01-29T08:29:04.297Z,8.98
2024-01-29T08:31:33.461Z,8.93
2024-01-29T08:34:01.534Z,9.10
2024-01-29T08:36:29.489Z,9.63
2024-01-29T08:38:57.281Z,8.27
2024-01-29T08:41:26.730Z,9.38
2024-01-29T08:43:54.695Z,9.25
2024-01-29T08:46:22.638Z,12.20
2024-01-29T08:48:50.651Z,8.50
2024-01-29T08:51:18.519Z,9.98
2024-01-29T08:53:46.447Z,10.80
2024-01-29T08:56:14.391Z,8.73
2024-01-29T08:58:42.799Z,7.93
2024-01-29T09:01:12.283Z,9.23
2024-01-29T09:03:42.807Z,8.07
2024-01-29T09:06:12.403Z,7.15
2024-01-29T09:08:41.111Z,8.80
2024-01-29T09:11:10.008Z,6.55
2024-01-29T09:13:39.025Z,10.18
2024-01-29T09:16:10.054Z,8.88
2024-01-29T09:18:39.031Z,5.50
2024-01-29T09:21:10.567Z,8.32
2024-01-29T09:23:40.869Z,8.32
2024-01-29T09:26:09.550Z,10.57
2024-01-29T09:28:39.433Z,10.40
2024-01-29T09:31:10.877Z,10.23
2024-01-29T09:33:40.273Z,11.98
2024-01-29T09:36:09.023Z,9.98
2024-01-29T09:38:36.828Z,11.40
2024-01-29T09:41:05.806Z,8.68
2024-01-29T09:43:36.336Z,9.30
2024-01-29T09:46:05.858Z,11.90
2024-01-29T09:48:36.247Z,14.05
2024-01-29T09:51:05.452Z,11.25
2024-01-29T09:53:37.844Z,10.23
2024-01-29T09:56:06.319Z,10.43
2024-01-29T09:58:34.666Z,9.18
2024-01-29T10:01:05.596Z,11.90
2024-01-29T10:03:40.666Z,12.65
2024-01-29T10:06:08.730Z,10.65
2024-01-29T10:08:38.680Z,10.80
2024-01-29T10:11:07.017Z,8.80
2024-01-29T10:13:34.838Z,8.75
2024-01-29T10:16:02.899Z,9.93
2024-01-29T10:18:31.502Z,9.45
2024-01-29T10:21:06.771Z,9.55
2024-01-29T10:23:34.734Z,8.97
2024-01-29T10:26:02.919Z,7.90
2024-01-29T10:28:31.142Z,12.02
2024-01-29T10:30:59.635Z,11.20
2024-01-29T10:33:27.809Z,9.40
2024-01-29T10:36:00.398Z,9.25
2024-01-29T10:38:31.160Z,9.95
2024-01-29T10:41:01.662Z,9.63
2024-01-29T10:43:37.548Z,11.30
2024-01-29T10:46:09.390Z,9.07
2024-01-29T10:48:39.001Z,8.20
2024-01-29T10:51:09.314Z,9.52
2024-01-29T10:53:39.281Z,9.10
2024-01-29T10:56:08.190Z,9.45
2024-01-29T10:58:36.552Z,10.05
2024-01-29T11:01:06.255Z,9.48
2024-01-29T11:03:36.829Z,10.65
2024-01-29T11:06:13.278Z,8.82
2024-01-29T11:08:46.349Z,10.18
2024-01-29T11:11:14.765Z,9.55
2024-01-29T11:13:43.352Z,9.45
2024-01-29T11:16:11.414Z,8.25
2024-01-29T11:18:39.571Z,8.95
2024-01-29T11:21:11.970Z,11.65
2024-01-29T11:23:45.693Z,9.85
2024-01-29T11:26:16.146Z,13.77
2024-01-29T11:28:44.085Z,29.77
2024-01-29T11:31:13.230Z,11.93
2024-01-29T11:33:41.868Z,7.93
2024-01-29T11:36:14.048Z,10.07
2024-01-29T11:38:43.226Z,7.72
2024-01-29T11:41:14.200Z,10.07
2024-01-29T11:43:44.020Z,9.00
2024-01-29T11:46:16.444Z,10.10
2024-01-29T11:48:44.440Z,7.18
2024-01-29T11:51:13.155Z,28.05
2024-01-29T11:53:40.997Z,9.23
2024-01-29T11:56:10.144Z,8.88
2024-01-29T11:58:37.961Z,6.60
2024-01-29T12:01:06.196Z,7.95
2024-01-29T12:03:36.776Z,8.55
2024-01-29T12:06:06.485Z,6.43
2024-01-29T12:08:34.599Z,6.22
2024-01-29T12:11:03.812Z,8.13
2024-01-29T12:13:33.370Z,7.13
2024-01-29T12:16:04.155Z,11.60
2024-01-29T12:18:33.296Z,7.55
2024-01-29T12:21:01.966Z,8.90
2024-01-29T12:23:29.954Z,5.13
2024-01-29T12:25:59.679Z,4.53
2024-01-29T12:28:28.985Z,5.20
2024-01-29T12:31:00.581Z,6.25
2024-01-29T12:33:30.005Z,5.38
2024-01-29T12:35:58.931Z,5.90
2024-01-29T12:38:27.112Z,4.90
2024-01-29T12:40:57.448Z,4.75
2024-01-29T12:43:29.377Z,5.35
2024-01-29T12:46:09.943Z,4.35
2024-01-29T12:48:38.337Z,6.50
2024-01-29T12:51:07.111Z,4.47
2024-01-29T12:53:34.939Z,4.95
2024-01-29T12:56:03.344Z,6.78
2024-01-29T12:58:31.747Z,4.68
2024-01-29T13:00:59.832Z,4.97
2024-01-29T13:03:28.290Z,5.15
2024-01-29T13:05:58.342Z,7.88
2024-01-29T13:08:28.061Z,4.05
2024-01-29T13:10:56.089Z,4.30
2024-01-29T13:13:25.061Z,7.00
2024-01-29T13:15:53.819Z,4.88
2024-01-29T13:18:22.609Z,4.70
2024-01-29T13:20:51.921Z,3.85
2024-01-29T13:23:20.035Z,5.05
2024-01-29T13:25:48.616Z,5.15
2024-01-29T13:28:16.719Z,4.75
2024-01-29T13:30:45.314Z,3.83
2024-01-29T13:33:13.449Z,5.07
2024-01-29T13:35:41.495Z,6.70
2024-01-29T13:38:10.886Z,7.72
2024-01-29T13:40:38.685Z,9.45
2024-01-29T13:43:08.135Z,10.38
2024-01-29T13:45:36.869Z,9.70
2024-01-29T13:48:05.411Z,11.43
2024-01-29T13:50:33.196Z,11.85
2024-01-29T13:53:01.202Z,8.68
2024-01-29T13:55:30.410Z,14.32
2024-01-29T13:57:58.309Z,11.70
2024-01-29T14:00:26.492Z,7.13
2024-01-29T14:02:54.472Z,9.57
2024-01-29T14:05:22.276Z,8.32
2024-01-29T14:07:50.120Z,7.35
2024-01-29T14:10:18.028Z,6.05
2024-01-29T14:12:47.205Z,5.70
2024-01-29T14:15:15.225Z,5.07
2024-01-29T14:17:42.995Z,7.10
2024-01-29T14:20:11.895Z,6.78
2024-01-29T14:22:40.602Z,5.45
2024-01-29T14:25:09.101Z,7.85
2024-01-29T14:27:36.971Z,8.57
2024-01-29T14:30:07.054Z,7.65
2024-01-29T14:32:34.956Z,8.15
2024-01-29T14:35:03.036Z,9.68
2024-01-29T14:37:30.991Z,7.90
2024-01-29T14:39:58.793Z,7.18
2024-01-29T14:42:26.628Z,7.40
2024-01-29T14:44:56.627Z,10.10
2024-01-29T14:47:26.291Z,8.02
2024-01-29T14:49:55.583Z,7.60
2024-01-29T14:52:23.489Z,10.10
2024-01-29T14:54:51.400Z,6.68
2024-01-29T14:57:19.368Z,7.82
2024-01-29T14:59:47.120Z,9.25
2024-01-29T15:02:15.043Z,5.70
2024-01-29T15:04:44.276Z,8.32
2024-01-29T15:07:12.251Z,17.30
2024-01-29T15:09:40.266Z,16.67
2024-01-29T15:12:08.992Z,12.07
2024-01-29T15:14:37.066Z,9.38
2024-01-29T15:17:06.346Z,10.60
2024-01-29T15:19:34.293Z,7.88
2024-01-29T15:22:05.205Z,8.60
2024-01-29T15:24:33.390Z,7.30
2024-01-29T15:27:01.170Z,6.50
2024-01-29T15:29:29.075Z,10.27
2024-01-29T15:31:57.093Z,9.30
2024-01-29T15:34:25.416Z,11.20
2024-01-29T15:36:53.375Z,15.93
2024-01-29T15:39:22.593Z,10.35
2024-01-29T15:41:50.931Z,13.52
2024-01-29T15:44:18.839Z,11.02
2024-01-29T15:46:46.649Z,10.07
2024-01-29T15:49:14.803Z,10.32
2024-01-29T15:51:42.792Z,11.77
2024-01-29T15:54:10.673Z,10.68
2024-01-29T15:56:39.831Z,8.57
2024-01-29T15:59:08.393Z,10.20
2024-01-29T16:01:36.243Z,8.50
2024-01-29T16:04:05.603Z,12.45
2024-01-29T16:06:35.510Z,15.25
2024-01-29T16:09:04.227Z,13.70
2024-01-29T16:11:32.125Z,10.93
2024-01-29T16:14:01.342Z,14.07
2024-01-29T16:16:29.173Z,11.23
2024-01-29T16:18:57.154Z,11.65
2024-01-29T16:21:25.665Z,13.45
2024-01-29T16:23:54.344Z,12.90
2024-01-29T16:26:22.923Z,14.05
2024-01-29T16:28:51.025Z,14.35
2024-01-29T16:31:20.612Z,10.88
2024-01-29T16:33:48.440Z,11.25
2024-01-29T16:36:23.539Z,9.13
2024-01-29T16:38:52.367Z,10.30
2024-01-29T16:41:22.061Z,8.95
2024-01-29T16:43:50.228Z,11.57
2024-01-29T16:46:18.280Z,11.05
2024-01-29T16:48:47.557Z,9.90
2024-01-29T16:51:22.242Z,9.43
2024-01-29T16:53:50.515Z,10.80
2024-01-29T16:56:27.580Z,12.25
2024-01-29T16:58:55.907Z,11.23
2024-01-29T17:01:23.916Z,12.95
2024-01-29T17:03:53.534Z,10.25
2024-01-29T17:06:21.528Z,10.27
2024-01-29T17:08:49.716Z,20.63
2024-01-29T17:11:18.321Z,13.80
2024-01-29T17:13:48.805Z,8.98
2024-01-29T17:16:17.870Z,10.65
2024-01-29T17:18:46.121Z,12.40
2024-01-29T17:21:16.399Z,15.02
2024-01-29T17:23:44.704Z,15.18
2024-01-29T17:26:13.192Z,14.43
2024-01-29T17:28:42.921Z,16.50
2024-01-29T17:31:10.953Z,23.92
2024-01-29T17:33:39.021Z,25.75
2024-01-29T17:36:09.883Z,18.67
2024-01-29T17:38:39.266Z,23.02
2024-01-29T17:41:07.452Z,18.23
2024-01-29T17:43:35.681Z,20.77
2024-01-29T17:46:03.740Z,17.13
2024-01-29T17:48:33.268Z,26.17
2024-01-29T17:51:05.343Z,34.53
2024-01-29T17:53:33.346Z,52.08
2024-01-29T17:56:02.880Z,35.17
2024-01-29T17:58:30.689Z,35.50
2024-01-29T18:00:58.969Z,43.72
2024-01-29T18:03:27.709Z,41.13
2024-01-29T18:05:55.881Z,25.48
2024-01-29T18:08:24.736Z,24.70
2024-01-29T18:10:53.167Z,30.08
2024-01-29T18:13:22.674Z,27.08
2024-01-29T18:15:50.756Z,23.75
2024-01-29T18:18:18.914Z,25.98
2024-01-29T18:20:47.127Z,24.42
2024-01-29T18:23:15.487Z,21.65
2024-01-29T18:25:43.788Z,19.05
2024-01-29T18:28:11.744Z,17.63
2024-01-29T18:30:41.171Z,19.80
2024-01-29T18:33:09.275Z,19.60
2024-01-29T18:35:37.609Z,21.55
2024-01-29T18:38:06.122Z,17.70
2024-01-29T18:40:35.110Z,18.60
2024-01-29T18:43:03.425Z,19.50
2024-01-29T18:45:31.544Z,15.85
2024-01-29T18:48:02.647Z,19.00
2024-01-29T18:50:30.764Z,20.48
2024-01-29T18:52:58.796Z,18.25
2024-01-29T18:55:26.720Z,22.15
2024-01-29T18:57:55.201Z,19.88
2024-01-29T19:00:23.580Z,21.75
2024-01-29T19:02:51.561Z,20.10
2024-01-29T19:05:21.182Z,30.38
2024-01-29T19:07:50.838Z,17.27
2024-01-29T19:10:19.756Z,19.38
2024-01-29T19:12:47.741Z,17.42
2024-01-29T19:15:15.676Z,14.60
2024-01-29T19:17:43.848Z,16.63
2024-01-29T19:20:13.410Z,18.73
2024-01-29T19:22:42.827Z,15.95
2024-01-29T19:25:12.030Z,21.63
2024-01-29T19:27:40.225Z,18.45
2024-01-29T19:30:10.770Z,20.30
2024-01-29T19:32:39.733Z,17.30
2024-01-29T19:35:10.084Z,17.15
2024-01-29T19:37:38.609Z,20.25
2024-01-29T19:40:10.961Z,22.85
2024-01-29T19:42:38.907Z,21.60
2024-01-29T19:45:07.707Z,26.13
2024-01-29T19:47:35.870Z,25.42
2024-01-29T19:50:08.277Z,36.28
2024-01-29T19:52:36.204Z,66.82
2024-01-29T19:55:04.261Z,65.30
2024-01-29T19:57:33.994Z,63.97
2024-01-29T20:00:02.199Z,56.17
2024-01-29T20:02:30.138Z,55.38
2024-01-29T20:05:00.194Z,56.33
2024-01-29T20:07:28.278Z,60.95
2024-01-29T20:09:56.554Z,57.65
2024-01-29T20:12:24.669Z,50.60
2024-01-29T20:14:54.494Z,49.65
2024-01-29T20:17:23.734Z,41.42
2024-01-29T20:19:51.918Z,43.30
2024-01-29T20:22:20.381Z,41.53
2024-01-29T20:24:48.328Z,35.47
2024-01-29T20:27:16.217Z,33.20
2024-01-29T20:29:45.207Z,32.25
2024-01-29T20:32:14.403Z,33.75
2024-01-29T20:34:42.377Z,34.75
2024-01-29T20:37:10.424Z,26.27
2024-01-29T20:39:38.692Z,34.58
2024-01-29T20:42:08.293Z,27.13
2024-01-29T20:44:36.140Z,27.27
2024-01-29T20:47:04.193Z,24.65
2024-01-29T20:49:34.787Z,25.35
2024-01-29T20:52:02.799Z,24.50
2024-01-29T20:54:30.697Z,34.92
2024-01-29T20:57:01.176Z,38.10
2024-01-29T20:59:29.427Z,38.15
2024-01-29T21:01:57.500Z,32.25
2024-01-29T21:04:27.824Z,29.90
2024-01-29T21:07:02.091Z,20.15
2024-01-29T21:09:29.986Z,16.83
2024-01-29T21:11:57.805Z,16.95
2024-01-29T21:14:25.635Z,16.35
2024-01-29T21:16:53.484Z,18.50
2024-01-29T21:19:21.352Z,21.48
2024-01-29T21:21:49.263Z,16.20
2024-01-29T21:24:18.832Z,18.92
2024-01-29T21:26:46.587Z,19.70
2024-01-29T21:29:14.699Z,20.38
2024-01-29T21:31:42.545Z,24.27
2024-01-29T21:34:10.476Z,36.95
2024-01-29T21:36:38.382Z,39.75
2024-01-29T21:39:06.622Z,28.75
2024-01-29T21:41:37.587Z,26.10
2024-01-29T21:44:05.618Z,29.05
2024-01-29T21:46:33.410Z,17.45
2024-01-29T21:49:01.386Z,23.08
2024-01-29T21:51:29.506Z,21.17
2024-01-29T21:53:57.406Z,20.52
2024-01-29T21:56:25.566Z,23.75
2024-01-29T21:58:54.708Z,19.17
2024-01-29T22:01:22.574Z,21.15
2024-01-29T22:03:50.482Z,19.85
2024-01-29T22:06:21.126Z,20.88
2024-01-29T22:08:49.118Z,17.17
2024-01-29T22:11:16.871Z,19.10
2024-01-29T22:13:44.670Z,16.70
2024-01-29T22:16:14.011Z,17.27
2024-01-29T22:18:42.182Z,18.63
2024-01-29T22:21:10.787Z,17.25
2024-01-29T22:23:38.782Z,13.45
2024-01-29T22:26:06.713Z,16.38
2024-01-29T22:28:34.464Z,18.30
2024-01-29T22:31:02.318Z,18.17
2024-01-29T22:33:31.559Z,16.38
2024-01-29T22:35:59.353Z,17.85
2024-01-29T22:38:27.154Z,17.45
2024-01-29T22:40:55.395Z,16.50
2024-01-29T22:43:23.403Z,17.20
2024-01-29T22:45:51.299Z,17.42
2024-01-29T22:48:19.108Z,17.08
2024-01-29T22:50:48.431Z,18.35
2024-01-29T22:53:16.273Z,18.02
2024-01-29T22:55:44.044Z,18.48
2024-01-29T22:58:12.068Z,18.40
2024-01-29T23:00:40.373Z,17.15
2024-01-29T23:03:09.121Z,19.48
2024-01-29T23:05:37.032Z,18.92
2024-01-29T23:08:06.829Z,19.83
2024-01-29T23:10:35.409Z,20.20
2024-01-29T23:13:03.373Z,19.90
2024-01-29T23:15:31.494Z,25.80
2024-01-29T23:17:59.570Z,24.27
2024-01-29T23:20:28.513Z,27.65
2024-01-29T23:22:56.403Z,32.53
2024-01-29T23:25:25.885Z,22.27
2024-01-29T23:27:53.679Z,23.00
2024-01-29T23:30:21.467Z,24.00
2024-01-29T23:32:50.615Z,16.23
2024-01-29T23:35:18.695Z,19.20
2024-01-29T23:37:46.503Z,15.13
2024-01-29T23:40:14.412Z,14.98
2024-01-29T23:42:43.628Z,15.63
2024-01-29T23:45:11.452Z,14.93
2024-01-29T23:47:39.198Z,15.35
2024-01-29T23:50:07.669Z,16.50
2024-01-29T23:52:35.516Z,15.65
2024-01-29T23:55:03.327Z,18.65
2024-01-29T23:57:32.681Z,17.25
